Latest Weather Observations for Mandurah

IDW60801

Issued at 10:33 am WST Tuesday 22 September 2020 (issued every 10 minutes, with the page automatically refreshed every 10 minutes)

About weather observations | Map of weather stations | Latest weather observations for WA | Other Formats
Station Details ID: 009977 Name: MANDURAH Lat: -32.52 Lon: 115.71 Height: 3.0 m
Data from the previous 72 hours. | See also: Recent months at Mandurah
Date/Time
WST
Temp
°C
App
Temp
°C
Dew
Point
°C
Rel
Hum
%
Delta-T
°C
Wind Press
QNH
hPa
Press
MSL
hPa
Rain since
9am
mm
Dir  Spd
km/h
Gust
km/h
Spd
kts
Gust
kts
22/10:30am 16.7 16.0 12.0 74 2.6 S 7 11 4 6 1023.8 1023.8 0.0
22/10:00am 15.6 15.2 12.4 81 1.7 SSE 6 9 3 5 1023.9 1023.9 0.0
22/09:30am 15.8 16.3 14.0 89 1.0 ENE 4 6 2 3 1024.0 1024.0 0.0
22/09:00am 15.3 15.5 14.2 93 0.6 ENE 6 7 3 4 1023.9 1023.9 1.6
22/08:30am 14.8 14.9 13.8 94 0.6 SE 6 9 3 5 1023.6 1023.6 1.6
22/08:00am 14.6 15.7 13.5 93 0.6 CALM 0 4 0 2 1023.7 1023.7 1.4
22/07:30am 14.3 14.2 13.2 93 0.6 SE 6 7 3 4 1023.2 1023.2 1.4
22/07:00am 14.0 13.8 12.9 93 0.6 SSW 6 6 3 3 1022.7 1022.7 1.4
22/06:30am 14.1 13.7 13.0 93 0.6 SE 7 9 4 5 1022.4 1022.4 1.4
22/06:00am 14.0 14.1 12.7 92 0.7 SE 4 6 2 3 1022.2 1022.2 1.2
22/05:30am 13.9 14.7 12.6 92 0.7 CALM 0 0 0 0 1022.0 1022.0 1.2
22/05:00am 14.0 13.5 12.7 92 0.7 SSE 7 11 4 6 1021.7 1021.7 1.0
22/04:30am 13.9 13.6 12.6 92 0.7 SSE 6 7 3 4 1021.6 1021.6 0.8
22/04:00am 14.0 13.5 12.6 91 0.8 SSE 7 11 4 6 1021.4 1021.4 0.8
22/03:30am 14.6 14.8 13.0 90 0.9 SSE 4 7 2 4 1021.3 1021.3 0.8
22/03:00am 14.6 13.8 13.0 90 0.9 W 9 15 5 8 1021.4 1021.4 0.8
22/02:30am 14.4 13.9 12.8 90 0.9 SSW 7 17 4 9 1021.5 1021.5 0.6
22/02:00am 15.3 13.9 12.2 82 1.7 WSW 11 17 6 9 1021.5 1021.5 0.0
22/01:30am 15.6 12.6 12.7 83 1.6 WSW 20 35 11 19 1021.7 1021.7 0.0
22/01:00am 15.8 14.2 11.4 75 2.4 WSW 11 20 6 11 1021.6 1021.6 0.0
22/12:30am 15.7 13.3 11.3 75 2.4 W 15 26 8 14 1021.6 1021.6 0.0
22/12:00am 15.6 14.1 11.8 78 2.0 W 11 19 6 10 1021.7 1021.7 0.0
 
Date/Time
WST
Temp
°C
App
Temp
°C
Dew
Point
°C
Rel
Hum
%
Delta-T
°C
Wind Press
QNH
hPa
Press
MSL
hPa
Rain since
9am
mm
Dir  Spd
km/h
Gust
km/h
Spd
kts
Gust
kts
21/11:30pm 14.9 13.6 11.1 78 2.0 WSW 9 17 5 9 1021.9 1021.9 0.0
21/11:00pm 14.9 14.0 11.5 80 1.8 WSW 7 11 4 6 1022.1 1022.1 0.0
21/10:30pm 15.0 13.0 11.4 79 1.9 SW 13 22 7 12 1022.4 1022.4 0.0
21/10:00pm 15.4 13.6 11.0 75 2.3 WSW 11 20 6 11 1022.4 1022.4 0.0
21/09:30pm 15.6 13.2 11.4 76 2.3 WSW 15 24 8 13 1022.5 1022.5 0.0
21/09:00pm 15.4 14.0 10.8 74 2.4 WSW 9 17 5 9 1022.6 1022.6 0.0
21/08:30pm 15.3 12.6 10.5 73 2.5 WSW 15 22 8 12 1022.7 1022.7 0.0
21/08:00pm 14.9 13.9 11.1 78 2.0 W 7 13 4 7 1022.6 1022.6 0.0
21/07:30pm 14.7 14.2 10.9 78 2.0 SW 4 6 2 3 1022.3 1022.3 0.0
21/07:00pm 15.1 13.0 11.1 77 2.1 WSW 13 30 7 16 1022.2 1022.2 0.0
21/06:30pm 15.1 13.8 9.9 71 2.7 WSW 7 13 4 7 1022.1 1022.1 0.0
21/06:00pm 15.4 13.9 9.3 67 3.1 WSW 7 13 4 7 1022.2 1022.2 0.0
21/05:30pm 15.8 13.3 9.7 67 3.2 WSW 13 20 7 11 1022.2 1022.2 0.0
21/05:00pm 15.6 14.1 10.6 72 2.6 W 9 13 5 7 1022.1 1022.1 0.0
21/04:30pm 15.9 14.0 10.4 70 2.9 W 11 17 6 9 1021.9 1021.9 0.0
21/04:00pm 16.2 15.0 9.6 65 3.4 WSW 6 13 3 7 1021.8 1021.8 0.0
21/03:30pm 16.8 14.6 9.5 62 3.8 WSW 11 19 6 10 1021.8 1021.8 0.0
21/03:00pm 16.3 14.0 9.0 62 3.7 SW 11 19 6 10 1021.9 1021.9 0.0
21/02:30pm 16.7 13.9 8.7 59 4.1 SW 13 20 7 11 1021.8 1021.8 0.0
21/02:00pm 17.1 14.2 8.0 55 4.6 WSW 13 20 7 11 1021.8 1021.8 0.0
21/01:30pm 17.9 15.3 7.6 51 5.2 WSW 11 20 6 11 1021.9 1021.9 0.0
21/01:00pm 18.1 15.2 6.6 47 5.7 WSW 11 19 6 10 1021.9 1021.9 0.0
21/12:30pm 17.1 12.6 6.0 48 5.4 WSW 19 26 10 14 1022.2 1022.2 0.0
21/12:00pm 17.6 14.1 7.4 51 5.1 WSW 15 26 8 14 1022.2 1022.2 0.0
21/11:30am 16.4 13.6 6.8 53 4.7 SE 11 15 6 8 1022.3 1022.3 0.0
21/11:00am 15.9 12.8 7.1 56 4.3 SSE 13 19 7 10 1022.5 1022.5 0.0
21/10:30am 15.4 12.6 6.9 57 4.2 SSE 11 17 6 9 1022.4 1022.4 0.0
21/10:00am 15.3 12.9 7.1 58 4.0 S 9 20 5 11 1022.4 1022.4 0.0
21/09:30am 14.6 12.7 6.9 60 3.8 SSE 6 11 3 6 1022.5 1022.5 0.0
21/09:00am 14.3 12.3 6.9 61 3.6 SE 7 13 4 7 1022.4 1022.4 2.0
21/08:30am 13.5 11.6 6.8 64 3.2 SE 6 7 3 4 1022.2 1022.2 2.0
21/08:00am 13.1 11.7 7.1 67 2.9 SE 4 9 2 5 1022.0 1022.0 2.0
21/07:30am 12.6 10.9 7.7 72 2.4 SE 6 9 3 5 1021.8 1021.8 2.0
21/07:00am 12.5 10.8 7.6 72 2.4 SSE 6 7 3 4 1021.6 1021.6 2.0
21/06:30am 12.4 10.6 7.3 71 2.5 SE 6 11 3 6 1021.3 1021.3 2.0
21/06:00am 12.5 10.1 7.0 69 2.6 SE 9 13 5 7 1021.1 1021.1 2.0
21/05:30am 13.4 9.7 4.6 55 4.0 SSW 13 20 7 11 1020.8 1020.8 2.0
21/05:00am 13.4 8.9 4.3 54 4.1 SSW 17 26 9 14 1020.6 1020.6 2.0
21/04:30am 13.3 9.2 6.2 62 3.4 SSW 17 32 9 17 1020.4 1020.4 2.0
21/04:00am 12.8 9.8 5.9 63 3.2 S 11 17 6 9 1020.2 1020.2 2.0
21/03:30am 12.9 9.0 6.9 67 2.9 S 17 28 9 15 1020.1 1020.1 2.0
21/03:00am 13.6 7.9 3.1 49 4.7 SW 22 33 12 18 1020.2 1020.2 2.0
21/02:30am 13.6 9.3 5.3 57 3.9 SW 17 26 9 14 1020.2 1020.2 2.0
21/02:00am 13.5 9.6 5.4 58 3.8 SSW 15 24 8 13 1020.4 1020.4 2.0
21/01:30am 13.4 9.3 4.6 55 4.0 SSW 15 28 8 15 1020.4 1020.4 2.0
21/01:00am 13.5 8.7 4.6 55 4.1 SW 19 28 10 15 1020.4 1020.4 2.0
21/12:30am 13.7 8.9 4.8 55 4.1 SW 19 30 10 16 1020.3 1020.3 2.0
21/12:00am 13.6 9.0 5.5 58 3.8 SSW 19 28 10 15 1020.5 1020.5 2.0
 
Date/Time
WST
Temp
°C
App
Temp
°C
Dew
Point
°C
Rel
Hum
%
Delta-T
°C
Wind Press
QNH
hPa
Press
MSL
hPa
Rain since
9am
mm
Dir  Spd
km/h
Gust
km/h
Spd
kts
Gust
kts
20/11:30pm 13.5 9.2 5.4 58 3.8 SW 17 26 9 14 1020.3 1020.3 2.0
20/11:00pm 13.2 9.2 6.5 64 3.2 SSW 17 33 9 18 1020.4 1020.4 2.0
20/10:30pm 13.7 8.9 5.6 58 3.8 SW 20 33 11 18 1020.4 1020.4 2.0
20/10:00pm 13.7 9.1 5.8 59 3.7 SW 19 28 10 15 1020.4 1020.4 2.0
20/09:30pm 13.5 9.1 6.4 62 3.4 SSW 19 30 10 16 1020.3 1020.3 2.0
20/09:00pm 13.5 9.4 6.4 62 3.4 SSW 17 24 9 13 1020.2 1020.2 2.0
20/08:30pm 13.9 9.0 5.0 55 4.1 SW 20 33 11 18 1020.1 1020.1 2.0
20/08:00pm 13.7 8.4 5.1 56 4.0 SW 22 39 12 21 1020.1 1020.1 2.0
20/07:30pm 13.6 8.4 5.3 57 3.9 SW 22 39 12 21 1019.9 1019.9 2.0
20/07:00pm 13.6 9.0 5.7 59 3.7 SSW 19 32 10 17 1019.5 1019.5 2.0
20/06:30pm 13.6 7.5 4.7 55 4.1 SW 26 37 14 20 1019.2 1019.2 2.0
20/06:00pm 14.0 8.8 5.6 57 4.0 SSW 22 37 12 20 1018.7 1018.7 2.0
20/05:30pm 14.2 9.5 6.1 58 3.9 SSW 20 33 11 18 1018.3 1018.3 2.0
20/05:00pm 14.5 8.6 5.8 56 4.1 SW 26 44 14 24 1017.7 1017.7 2.0
20/04:30pm 14.9 8.8 6.7 58 4.0 SW 28 43 15 23 1017.6 1017.6 2.0
20/04:00pm 14.2 8.7 7.5 64 3.3 WSW 26 43 14 23 1017.4 1017.4 2.0
20/03:30pm 14.8 10.0 8.7 67 3.1 SW 24 41 13 22 1017.2 1017.2 2.0
20/03:07pm 15.0 9.5 9.1 68 3.0 SW 28 50 15 27 1017.2 1017.2 1.6
20/03:00pm 15.8 10.3 7.6 58 4.1 SW 26 43 14 23 1016.9 1016.9 1.4
20/02:30pm 14.7 8.1 7.7 63 3.5 SW 32 57 17 31 1016.8 1016.8 1.4
20/02:21pm 15.3 8.9 7.1 58 4.0 SW 30 56 16 30 1016.7 1016.7 1.4
20/02:00pm 15.1 9.4 8.3 64 3.4 SW 28 43 15 23 1016.5 1016.5 1.4
20/01:30pm 13.7 7.5 9.4 75 2.2 SW 32 56 17 30 1016.6 1016.6 1.4
20/01:27pm 14.6 9.1 9.0 69 2.8 SW 28 56 15 30 1016.6 1016.6 1.0
20/01:00pm 15.0 9.4 7.1 59 3.9 SW 26 37 14 20 1016.5 1016.5 1.0
20/12:35pm 14.6 9.0 8.8 68 2.9 SW 28 52 15 28 1016.5 1016.5 1.0
20/12:30pm 14.3 9.0 8.5 68 2.9 SW 26 41 14 22 1016.5 1016.5 1.0
20/12:00pm 14.1 7.6 8.9 71 2.6 SW 33 65 18 35 1016.6 1016.6 1.0
20/11:57am 15.5 9.6 7.3 58 4.1 WSW 28 50 15 27 1016.4 1016.4 0.8
20/11:30am 14.1 8.1 6.9 62 3.5 SW 28 46 15 25 1016.4 1016.4 0.8
20/11:11am 14.7 8.8 7.7 63 3.5 SW 28 46 15 25 1016.2 1016.2 0.8
20/11:00am 13.7 9.0 7.7 67 2.9 SW 22 33 12 18 1016.1 1016.1 0.8
20/10:45am 13.6 7.4 7.8 68 2.9 SW 30 54 16 29 1016.3 1016.3 0.8
20/10:30am 15.0 7.9 5.5 53 4.5 SW 32 48 17 26 1015.8 1015.8 0.8
20/10:15am 14.2 7.6 6.1 58 3.9 SW 30 52 16 28 1015.7 1015.7 0.8
20/10:00am 13.3 8.0 8.4 72 2.4 WSW 26 44 14 24 1015.7 1015.7 0.8
20/09:45am 13.5 8.4 7.7 68 2.9 SW 24 50 13 27 1015.7 1015.7 0.0
20/09:30am 13.4 6.5 7.4 67 2.9 SSW 33 56 18 30 1015.5 1015.5 0.0
20/09:00am 13.9 7.8 6.5 61 3.6 SW 28 46 15 25 1015.1 1015.1 7.4
20/08:42am 13.5 7.2 7.3 66 3.0 SW 30 56 16 30 1015.0 1015.0 7.4
20/08:30am 12.4 7.2 7.1 70 2.6 SW 24 48 13 26 1014.8 1014.8 7.4
20/08:00am 12.8 6.2 6.2 64 3.1 SW 30 48 16 26 1014.4 1014.4 7.4
20/07:30am 12.6 5.9 7.5 71 2.5 SW 32 52 17 28 1014.2 1014.2 7.2
20/07:09am 12.6 6.3 5.8 63 3.2 SW 28 46 15 25 1013.5 1013.5 7.2
20/07:00am 12.7 6.0 5.6 62 3.3 SW 30 48 16 26 1013.4 1013.4 7.2
20/06:39am 12.3 6.2 6.6 68 2.7 SW 28 50 15 27 1013.1 1013.1 7.2
20/06:30am 11.4 5.9 6.1 70 2.5 SW 24 41 13 22 1013.1 1013.1 7.2
20/06:09am 11.2 5.0 6.3 72 2.3 SW 28 52 15 28 1013.0 1013.0 7.2
20/06:00am 10.7 5.6 7.8 82 1.4 SW 24 39 13 21 1013.1 1013.1 7.2
20/05:31am 12.0 6.0 7.1 72 2.4 SW 28 46 15 25 1012.4 1012.4 7.0
20/05:30am 12.0 5.6 6.9 71 2.4 SW 30 46 16 25 1012.4 1012.4 7.0
20/05:03am 12.0 6.1 7.5 74 2.2 WSW 28 48 15 26 1012.5 1012.5 6.0
20/05:00am 12.0 6.4 7.1 72 2.4 WSW 26 43 14 23 1012.2 1012.2 5.6
20/04:30am 11.2 3.6 7.5 78 1.8 SW 37 65 20 35 1012.6 1012.6 5.4
20/04:01am 12.2 5.4 5.1 62 3.3 SW 30 50 16 27 1012.0 1012.0 5.2
20/04:00am 12.2 5.0 4.9 61 3.3 SW 32 50 17 27 1012.0 1012.0 5.2
20/03:30am 12.3 6.3 7.0 70 2.5 SW 28 50 15 27 1011.9 1011.9 5.2
20/03:28am 11.9 5.7 6.2 68 2.7 SW 28 43 15 23 1011.9 1011.9 5.2
20/03:00am 10.5 6.8 6.5 76 1.9 SW 15 26 8 14 1012.0 1012.0 5.2
20/02:30am 11.3 4.3 6.8 74 2.1 SW 33 65 18 35 1012.4 1012.4 5.0
20/02:00am 11.1 3.1 5.8 70 2.5 WSW 37 59 20 32 1012.3 1012.3 4.6
20/01:51am 11.8 5.7 6.5 70 2.5 WSW 28 52 15 28 1012.0 1012.0 4.4
20/01:30am 11.1 5.6 7.4 78 1.8 SW 26 46 14 25 1012.5 1012.5 4.4
20/01:16am 12.0 4.7 5.6 65 3.0 WSW 33 65 18 35 1012.5 1012.5 4.4
20/01:01am 11.3 5.1 6.2 71 2.4 WSW 28 46 15 25 1012.2 1012.2 4.4
20/01:00am 11.3 5.2 6.4 72 2.3 WSW 28 43 15 23 1012.2 1012.2 4.4
20/12:30am 11.9 4.1 2.6 53 4.0 WSW 33 56 18 30 1012.3 1012.3 4.2
20/12:17am 11.6 5.1 4.6 62 3.2 SW 28 48 15 26 1012.3 1012.3 4.2
20/12:00am 11.4 5.6 6.1 70 2.5 SW 26 44 14 24 1012.5 1012.5 4.2
 
Date/Time
WST
Temp
°C
App
Temp
°C
Dew
Point
°C
Rel
Hum
%
Delta-T
°C
Wind Press
QNH
hPa
Press
MSL
hPa
Rain since
9am
mm
Dir  Spd
km/h
Gust
km/h
Spd
kts
Gust
kts
19/11:31pm 11.2 5.2 6.9 75 2.0 SW 28 50 15 27 1012.8 1012.8 4.0
19/11:30pm 11.1 5.5 7.0 76 2.0 SW 26 44 14 24 1012.8 1012.8 4.0
19/11:00pm 10.1 5.5 5.7 74 2.0 SSW 19 32 10 17 1012.7 1012.7 3.8
19/10:32pm 11.4 4.9 6.5 72 2.3 WSW 30 52 16 28 1012.8 1012.8 3.8
19/10:30pm 11.2 5.0 6.1 71 2.4 WSW 28 43 15 23 1012.6 1012.6 3.6
19/10:00pm 10.7 3.7 5.9 72 2.2 SW 32 59 17 32 1013.1 1013.1 3.2
19/09:30pm 10.5 3.8 5.5 71 2.3 WSW 30 52 16 28 1012.9 1012.9 3.2
19/09:00pm 11.6 4.1 6.1 69 2.6 WSW 35 72 19 39 1012.8 1012.8 2.8
19/08:32pm 11.6 4.5 5.5 66 2.8 SW 32 52 17 28 1012.1 1012.1 2.4
19/08:30pm 11.8 4.9 6.3 69 2.6 WSW 32 46 17 25 1012.1 1012.1 2.4
19/08:05pm 11.6 5.0 5.9 68 2.7 WSW 30 52 16 28 1011.9 1011.9 2.4
19/08:00pm 11.1 4.0 5.4 68 2.6 WSW 32 46 17 25 1012.0 1012.0 2.4
19/07:48pm 10.2 4.1 6.4 77 1.8 WSW 28 50 15 27 1011.9 1011.9 2.4
19/07:30pm 9.9 4.7 7.3 84 1.2 SSW 24 39 13 21 1011.8 1011.8 2.2
19/07:22pm 10.0 3.4 7.8 86 1.1 SW 32 59 17 32 1012.0 1012.0 2.2
19/07:17pm 10.1 2.2 7.7 85 1.2 SW 39 63 21 34 1011.9 1011.9 2.0
19/07:05pm 11.4 4.5 6.3 71 2.4 SW 32 76 17 41 1011.5 1011.5 1.2
19/07:00pm 12.8 7.7 7.5 70 2.6 SW 24 50 13 27 1010.7 1010.7 0.6
19/06:52pm 13.1 7.1 7.1 67 2.9 WSW 28 50 15 27 1010.8 1010.8 0.6
19/06:30pm 12.8 6.3 6.4 65 3.0 SW 30 44 16 24 1010.7 1010.7 0.6
19/06:00pm 13.0 4.6 5.7 61 3.4 WSW 39 57 21 31 1010.5 1010.5 0.6
19/05:30pm 13.8 6.5 5.4 57 3.9 WSW 33 57 18 31 1010.1 1010.1 0.6
19/05:00pm 14.6 5.6 6.2 57 4.0 W 43 61 23 33 1009.7 1009.7 0.6
19/04:33pm 13.6 6.9 7.4 66 3.0 W 32 52 17 28 1009.6 1009.6 0.6
19/04:30pm 13.6 7.0 7.6 67 2.9 WSW 32 48 17 26 1009.6 1009.6 0.6
19/04:00pm 13.9 6.9 7.0 63 3.4 WSW 33 57 18 31 1009.4 1009.4 0.4
19/03:34pm 14.8 8.5 7.6 62 3.6 W 30 72 16 39 1009.1 1009.1 0.4
19/03:33pm 14.8 8.9 7.6 62 3.6 W 28 52 15 28 1009.1 1009.1 0.4
19/03:30pm 14.9 9.3 8.6 66 3.2 W 28 44 15 24 1009.1 1009.1 0.4
19/03:00pm 14.3 7.8 9.1 71 2.7 W 33 56 18 30 1009.1 1009.1 0.4
19/02:36pm 16.3 8.8 6.4 52 4.8 W 35 56 19 30 1008.7 1008.7 0.4
19/02:30pm 16.2 8.4 6.6 53 4.7 W 37 54 20 29 1008.7 1008.7 0.4
19/02:00pm 16.6 9.8 7.0 53 4.8 WSW 32 52 17 28 1008.6 1008.6 0.4
19/01:30pm 16.3 10.0 7.5 56 4.4 W 30 50 16 27 1008.5 1008.5 0.4
19/01:00pm 16.2 9.5 7.4 56 4.4 W 32 50 17 27 1008.8 1008.8 0.4
19/12:49pm 16.8 11.3 9.2 61 3.9 W 28 48 15 26 1008.7 1008.7 0.4
19/12:30pm 14.6 9.1 9.0 69 2.8 W 28 46 15 25 1008.8 1008.8 0.4
19/12:13pm 15.7 10.0 8.2 61 3.8 W 28 52 15 28 1008.9 1008.9 0.4
19/12:00pm 14.8 9.4 9.6 71 2.7 WNW 28 39 15 21 1008.9 1008.9 0.4
19/11:43am 14.2 8.0 9.4 73 2.5 W 32 59 17 32 1009.3 1009.3 0.4
19/11:41am 15.2 9.7 9.3 68 3.0 W 28 59 15 32 1009.3 1009.3 0.2
19/11:30am 16.7 12.0 7.6 55 4.6 WSW 22 39 12 21 1009.2 1009.2 0.0
19/11:00am 16.0 10.9 7.7 58 4.2 WSW 24 37 13 20 1009.4 1009.4 0.0

Other formats

Comma delimited format used in spreadsheet applications
http://www.bom.gov.au/fwo/IDW60801/IDW60801.94605.axf

JavaScript Object Notation format (JSON) in row-major order
http://www.bom.gov.au/fwo/IDW60801/IDW60801.94605.json

Data quality

Most of these data are generated automatically and are frequently updated. Quality checks on data are not normally performed. It is possible for incorrect values to appear. Refer to information at About Latest Weather Observations and please check the disclaimer before using these data.